sensor_id;sensor_type;location;lat;lon;timestamp;P1;durP1;ratioP1;P2;durP2;ratioP2
74064;SDS011;62421;51.412;5.432;2022-11-12T00:00:12;20.83;;;12.97;;
74064;SDS011;62421;51.412;5.432;2022-11-12T00:02:38;21.40;;;12.40;;
74064;SDS011;62421;51.412;5.432;2022-11-12T00:05:03;22.53;;;11.83;;
74064;SDS011;62421;51.412;5.432;2022-11-12T00:07:29;19.08;;;10.77;;
74064;SDS011;62421;51.412;5.432;2022-11-12T00:09:54;18.83;;;11.77;;
74064;SDS011;62421;51.412;5.432;2022-11-12T00:12:20;23.43;;;13.47;;
74064;SDS011;62421;51.412;5.432;2022-11-12T00:14:45;23.27;;;13.23;;
74064;SDS011;62421;51.412;5.432;2022-11-12T00:17:10;21.60;;;12.77;;
74064;SDS011;62421;51.412;5.432;2022-11-12T00:19:35;18.33;;;11.87;;
74064;SDS011;62421;51.412;5.432;2022-11-12T00:22:01;22.17;;;13.10;;
74064;SDS011;62421;51.412;5.432;2022-11-12T00:24:26;21.30;;;11.83;;
74064;SDS011;62421;51.412;5.432;2022-11-12T00:26:51;21.50;;;12.20;;
74064;SDS011;62421;51.412;5.432;2022-11-12T00:29:17;20.77;;;12.80;;
74064;SDS011;62421;51.412;5.432;2022-11-12T00:31:42;21.00;;;11.70;;
74064;SDS011;62421;51.412;5.432;2022-11-12T00:34:07;19.60;;;11.60;;
74064;SDS011;62421;51.412;5.432;2022-11-12T00:36:32;17.80;;;11.43;;
74064;SDS011;62421;51.412;5.432;2022-11-12T00:38:58;22.97;;;12.47;;
74064;SDS011;62421;51.412;5.432;2022-11-12T00:41:23;21.50;;;12.57;;
74064;SDS011;62421;51.412;5.432;2022-11-12T00:43:48;23.10;;;12.40;;
74064;SDS011;62421;51.412;5.432;2022-11-12T00:46:14;20.73;;;12.10;;
74064;SDS011;62421;51.412;5.432;2022-11-12T00:48:39;17.77;;;11.03;;
74064;SDS011;62421;51.412;5.432;2022-11-12T00:51:04;19.90;;;11.87;;
74064;SDS011;62421;51.412;5.432;2022-11-12T00:53:30;22.88;;;12.52;;
74064;SDS011;62421;51.412;5.432;2022-11-12T00:56:00;26.40;;;12.18;;
74064;SDS011;62421;51.412;5.432;2022-11-12T00:58:27;20.30;;;12.00;;
74064;SDS011;62421;51.412;5.432;2022-11-12T01:00:54;22.10;;;12.52;;
74064;SDS011;62421;51.412;5.432;2022-11-12T01:03:20;21.38;;;12.00;;
74064;SDS011;62421;51.412;5.432;2022-11-12T01:05:45;20.67;;;12.10;;
74064;SDS011;62421;51.412;5.432;2022-11-12T01:08:10;21.93;;;11.43;;
74064;SDS011;62421;51.412;5.432;2022-11-12T01:10:36;21.10;;;12.53;;
74064;SDS011;62421;51.412;5.432;2022-11-12T01:13:01;20.60;;;11.07;;
74064;SDS011;62421;51.412;5.432;2022-11-12T01:15:26;23.60;;;11.87;;
74064;SDS011;62421;51.412;5.432;2022-11-12T01:17:51;23.73;;;13.03;;
74064;SDS011;62421;51.412;5.432;2022-11-12T01:20:17;22.40;;;12.43;;
74064;SDS011;62421;51.412;5.432;2022-11-12T01:22:42;19.23;;;12.63;;
74064;SDS011;62421;51.412;5.432;2022-11-12T01:25:08;21.03;;;12.20;;
74064;SDS011;62421;51.412;5.432;2022-11-12T01:27:33;21.88;;;12.10;;
74064;SDS011;62421;51.412;5.432;2022-11-12T01:29:58;18.57;;;11.40;;
74064;SDS011;62421;51.412;5.432;2022-11-12T01:32:24;18.90;;;11.83;;
74064;SDS011;62421;51.412;5.432;2022-11-12T01:34:49;26.60;;;13.37;;
74064;SDS011;62421;51.412;5.432;2022-11-12T01:37:15;21.25;;;12.55;;
74064;SDS011;62421;51.412;5.432;2022-11-12T01:39:40;20.42;;;12.25;;
74064;SDS011;62421;51.412;5.432;2022-11-12T01:42:05;22.33;;;13.07;;
74064;SDS011;62421;51.412;5.432;2022-11-12T01:44:31;21.23;;;12.77;;
74064;SDS011;62421;51.412;5.432;2022-11-12T01:47:13;20.53;;;12.03;;
74064;SDS011;62421;51.412;5.432;2022-11-12T01:52:33;18.38;;;11.60;;
74064;SDS011;62421;51.412;5.432;2022-11-12T01:55:06;24.73;;;13.05;;
74064;SDS011;62421;51.412;5.432;2022-11-12T01:57:36;22.30;;;12.73;;
74064;SDS011;62421;51.412;5.432;2022-11-12T02:00:07;22.98;;;12.95;;
74064;SDS011;62421;51.412;5.432;2022-11-12T02:02:35;23.35;;;12.10;;
74064;SDS011;62421;51.412;5.432;2022-11-12T02:05:02;21.33;;;12.63;;
74064;SDS011;62421;51.412;5.432;2022-11-12T02:07:31;23.30;;;13.23;;
74064;SDS011;62421;51.412;5.432;2022-11-12T02:09:58;20.43;;;11.57;;
74064;SDS011;62421;51.412;5.432;2022-11-12T02:12:25;20.90;;;12.48;;
74064;SDS011;62421;51.412;5.432;2022-11-12T02:15:09;21.95;;;11.70;;
74064;SDS011;62421;51.412;5.432;2022-11-12T02:17:35;18.40;;;11.10;;
74064;SDS011;62421;51.412;5.432;2022-11-12T02:20:00;19.30;;;11.23;;
74064;SDS011;62421;51.412;5.432;2022-11-12T02:22:26;22.88;;;13.02;;
74064;SDS011;62421;51.412;5.432;2022-11-12T02:24:51;21.67;;;12.50;;
74064;SDS011;62421;51.412;5.432;2022-11-12T02:27:16;21.93;;;12.83;;
74064;SDS011;62421;51.412;5.432;2022-11-12T02:29:42;19.70;;;11.50;;
74064;SDS011;62421;51.412;5.432;2022-11-12T02:32:13;19.55;;;11.55;;
74064;SDS011;62421;51.412;5.432;2022-11-12T02:34:39;21.60;;;13.03;;
74064;SDS011;62421;51.412;5.432;2022-11-12T02:37:05;20.30;;;13.27;;
74064;SDS011;62421;51.412;5.432;2022-11-12T02:39:31;19.83;;;12.10;;
74064;SDS011;62421;51.412;5.432;2022-11-12T02:41:56;19.97;;;11.37;;
74064;SDS011;62421;51.412;5.432;2022-11-12T02:44:21;19.83;;;12.37;;
74064;SDS011;62421;51.412;5.432;2022-11-12T02:46:47;18.70;;;11.33;;
74064;SDS011;62421;51.412;5.432;2022-11-12T02:49:12;17.83;;;11.40;;
74064;SDS011;62421;51.412;5.432;2022-11-12T02:51:38;24.70;;;11.73;;
74064;SDS011;62421;51.412;5.432;2022-11-12T02:54:03;19.23;;;11.27;;
74064;SDS011;62421;51.412;5.432;2022-11-12T02:56:28;19.27;;;11.02;;
74064;SDS011;62421;51.412;5.432;2022-11-12T02:58:54;22.07;;;11.60;;
74064;SDS011;62421;51.412;5.432;2022-11-12T03:01:19;20.23;;;11.73;;
74064;SDS011;62421;51.412;5.432;2022-11-12T03:03:44;19.37;;;11.47;;
74064;SDS011;62421;51.412;5.432;2022-11-12T03:06:10;21.77;;;12.13;;
74064;SDS011;62421;51.412;5.432;2022-11-12T03:08:35;23.03;;;12.23;;
74064;SDS011;62421;51.412;5.432;2022-11-12T03:11:10;16.93;;;11.03;;
74064;SDS011;62421;51.412;5.432;2022-11-12T03:13:37;19.85;;;11.63;;
74064;SDS011;62421;51.412;5.432;2022-11-12T03:16:02;21.23;;;12.10;;
74064;SDS011;62421;51.412;5.432;2022-11-12T03:18:28;18.47;;;11.47;;
74064;SDS011;62421;51.412;5.432;2022-11-12T03:20:53;21.13;;;10.77;;
74064;SDS011;62421;51.412;5.432;2022-11-12T03:23:19;17.70;;;11.10;;
74064;SDS011;62421;51.412;5.432;2022-11-12T03:25:44;18.70;;;10.83;;
74064;SDS011;62421;51.412;5.432;2022-11-12T03:28:13;17.43;;;10.83;;
74064;SDS011;62421;51.412;5.432;2022-11-12T03:30:41;20.40;;;10.43;;
74064;SDS011;62421;51.412;5.432;2022-11-12T03:33:08;17.88;;;10.43;;
74064;SDS011;62421;51.412;5.432;2022-11-12T03:35:35;18.57;;;11.13;;
74064;SDS011;62421;51.412;5.432;2022-11-12T03:38:01;16.63;;;10.80;;
74064;SDS011;62421;51.412;5.432;2022-11-12T03:40:28;17.65;;;10.63;;
74064;SDS011;62421;51.412;5.432;2022-11-12T03:42:54;17.00;;;10.33;;
74064;SDS011;62421;51.412;5.432;2022-11-12T03:45:20;16.38;;;10.15;;
74064;SDS011;62421;51.412;5.432;2022-11-12T03:47:47;20.87;;;10.13;;
74064;SDS011;62421;51.412;5.432;2022-11-12T03:50:14;21.13;;;10.00;;
74064;SDS011;62421;51.412;5.432;2022-11-12T03:52:44;17.92;;;10.70;;
74064;SDS011;62421;51.412;5.432;2022-11-12T03:55:11;20.20;;;9.85;;
74064;SDS011;62421;51.412;5.432;2022-11-12T03:57:38;18.83;;;10.52;;
74064;SDS011;62421;51.412;5.432;2022-11-12T04:00:06;17.80;;;9.73;;
74064;SDS011;62421;51.412;5.432;2022-11-12T04:02:33;19.13;;;10.57;;
74064;SDS011;62421;51.412;5.432;2022-11-12T04:04:58;18.17;;;10.03;;
74064;SDS011;62421;51.412;5.432;2022-11-12T04:07:42;19.37;;;9.90;;
74064;SDS011;62421;51.412;5.432;2022-11-12T04:10:27;18.45;;;9.98;;
74064;SDS011;62421;51.412;5.432;2022-11-12T04:12:53;19.40;;;10.82;;
74064;SDS011;62421;51.412;5.432;2022-11-12T04:15:37;18.50;;;10.07;;
74064;SDS011;62421;51.412;5.432;2022-11-12T04:18:03;18.17;;;10.20;;
74064;SDS011;62421;51.412;5.432;2022-11-12T04:20:47;20.38;;;9.15;;
74064;SDS011;62421;51.412;5.432;2022-11-12T04:23:31;20.67;;;9.90;;
74064;SDS011;62421;51.412;5.432;2022-11-12T04:25:56;18.35;;;9.00;;
74064;SDS011;62421;51.412;5.432;2022-11-12T04:28:40;21.07;;;9.47;;
74064;SDS011;62421;51.412;5.432;2022-11-12T04:31:26;15.93;;;8.85;;
74064;SDS011;62421;51.412;5.432;2022-11-12T04:33:51;22.47;;;9.77;;
74064;SDS011;62421;51.412;5.432;2022-11-12T04:36:16;16.63;;;9.00;;
74064;SDS011;62421;51.412;5.432;2022-11-12T04:38:41;17.90;;;9.83;;
74064;SDS011;62421;51.412;5.432;2022-11-12T04:41:07;16.40;;;9.70;;
74064;SDS011;62421;51.412;5.432;2022-11-12T04:43:51;18.05;;;10.20;;
74064;SDS011;62421;51.412;5.432;2022-11-12T04:46:35;20.33;;;9.75;;
74064;SDS011;62421;51.412;5.432;2022-11-12T04:49:00;16.10;;;10.07;;
74064;SDS011;62421;51.412;5.432;2022-11-12T04:51:25;19.10;;;10.00;;
74064;SDS011;62421;51.412;5.432;2022-11-12T04:54:09;17.52;;;10.30;;
74064;SDS011;62421;51.412;5.432;2022-11-12T04:56:34;17.67;;;9.50;;
74064;SDS011;62421;51.412;5.432;2022-11-12T04:59:00;18.10;;;10.23;;
74064;SDS011;62421;51.412;5.432;2022-11-12T05:01:25;15.03;;;8.83;;
74064;SDS011;62421;51.412;5.432;2022-11-12T05:03:50;18.30;;;9.43;;
74064;SDS011;62421;51.412;5.432;2022-11-12T05:06:15;15.20;;;10.10;;
74064;SDS011;62421;51.412;5.432;2022-11-12T05:08:59;14.03;;;8.83;;
74064;SDS011;62421;51.412;5.432;2022-11-12T05:11:25;16.80;;;9.98;;
74064;SDS011;62421;51.412;5.432;2022-11-12T05:13:50;19.03;;;9.33;;
74064;SDS011;62421;51.412;5.432;2022-11-12T05:16:15;16.77;;;10.10;;
74064;SDS011;62421;51.412;5.432;2022-11-12T05:18:41;18.00;;;9.37;;
74064;SDS011;62421;51.412;5.432;2022-11-12T05:21:06;16.83;;;9.53;;
74064;SDS011;62421;51.412;5.432;2022-11-12T05:23:51;14.48;;;9.52;;
74064;SDS011;62421;51.412;5.432;2022-11-12T05:26:16;16.83;;;9.57;;
74064;SDS011;62421;51.412;5.432;2022-11-12T05:28:42;19.77;;;9.40;;
74064;SDS011;62421;51.412;5.432;2022-11-12T05:31:07;16.53;;;9.27;;
74064;SDS011;62421;51.412;5.432;2022-11-12T05:33:32;19.03;;;9.87;;
74064;SDS011;62421;51.412;5.432;2022-11-12T05:35:58;18.60;;;10.40;;
74064;SDS011;62421;51.412;5.432;2022-11-12T05:38:24;19.38;;;10.93;;
74064;SDS011;62421;51.412;5.432;2022-11-12T05:40:50;17.80;;;9.13;;
74064;SDS011;62421;51.412;5.432;2022-11-12T05:43:15;17.33;;;9.63;;
74064;SDS011;62421;51.412;5.432;2022-11-12T05:45:43;20.37;;;10.30;;
74064;SDS011;62421;51.412;5.432;2022-11-12T05:48:09;18.50;;;10.52;;
74064;SDS011;62421;51.412;5.432;2022-11-12T05:50:34;20.13;;;9.90;;
74064;SDS011;62421;51.412;5.432;2022-11-12T05:53:00;17.03;;;9.30;;
74064;SDS011;62421;51.412;5.432;2022-11-12T05:55:25;17.33;;;10.37;;
74064;SDS011;62421;51.412;5.432;2022-11-12T05:57:50;18.55;;;10.02;;
74064;SDS011;62421;51.412;5.432;2022-11-12T06:00:16;17.03;;;10.27;;
74064;SDS011;62421;51.412;5.432;2022-11-12T06:02:41;16.30;;;9.47;;
74064;SDS011;62421;51.412;5.432;2022-11-12T06:05:07;19.90;;;9.90;;
74064;SDS011;62421;51.412;5.432;2022-11-12T06:07:33;16.85;;;9.95;;
74064;SDS011;62421;51.412;5.432;2022-11-12T06:09:58;19.03;;;9.70;;
74064;SDS011;62421;51.412;5.432;2022-11-12T06:12:23;15.73;;;9.23;;
74064;SDS011;62421;51.412;5.432;2022-11-12T06:14:48;18.50;;;9.97;;
74064;SDS011;62421;51.412;5.432;2022-11-12T06:17:14;17.60;;;9.23;;
74064;SDS011;62421;51.412;5.432;2022-11-12T06:19:39;16.77;;;9.63;;
74064;SDS011;62421;51.412;5.432;2022-11-12T06:22:04;19.07;;;10.10;;
74064;SDS011;62421;51.412;5.432;2022-11-12T06:24:30;21.10;;;9.67;;
74064;SDS011;62421;51.412;5.432;2022-11-12T06:26:55;16.73;;;9.47;;
74064;SDS011;62421;51.412;5.432;2022-11-12T06:29:20;16.03;;;9.30;;
74064;SDS011;62421;51.412;5.432;2022-11-12T06:31:46;25.57;;;10.67;;
74064;SDS011;62421;51.412;5.432;2022-11-12T06:34:11;17.20;;;9.03;;
74064;SDS011;62421;51.412;5.432;2022-11-12T06:36:36;19.88;;;8.68;;
74064;SDS011;62421;51.412;5.432;2022-11-12T06:39:02;17.87;;;9.60;;
74064;SDS011;62421;51.412;5.432;2022-11-12T06:41:27;19.03;;;9.60;;
74064;SDS011;62421;51.412;5.432;2022-11-12T06:43:53;18.10;;;8.80;;
74064;SDS011;62421;51.412;5.432;2022-11-12T06:46:18;15.10;;;9.17;;
74064;SDS011;62421;51.412;5.432;2022-11-12T06:48:43;18.27;;;8.63;;
74064;SDS011;62421;51.412;5.432;2022-11-12T06:51:10;16.90;;;8.67;;
74064;SDS011;62421;51.412;5.432;2022-11-12T06:53:40;15.38;;;9.35;;
74064;SDS011;62421;51.412;5.432;2022-11-12T06:56:06;19.40;;;9.60;;
74064;SDS011;62421;51.412;5.432;2022-11-12T06:58:32;16.02;;;9.32;;
74064;SDS011;62421;51.412;5.432;2022-11-12T07:01:02;15.40;;;9.10;;
74064;SDS011;62421;51.412;5.432;2022-11-12T07:03:32;14.38;;;9.40;;
74064;SDS011;62421;51.412;5.432;2022-11-12T07:05:57;16.43;;;9.00;;
74064;SDS011;62421;51.412;5.432;2022-11-12T07:08:27;18.00;;;9.13;;
74064;SDS011;62421;51.412;5.432;2022-11-12T07:10:55;17.67;;;9.10;;
74064;SDS011;62421;51.412;5.432;2022-11-12T07:13:21;19.10;;;9.02;;
74064;SDS011;62421;51.412;5.432;2022-11-12T07:15:46;18.47;;;9.17;;
74064;SDS011;62421;51.412;5.432;2022-11-12T07:18:12;16.43;;;9.10;;
74064;SDS011;62421;51.412;5.432;2022-11-12T07:20:37;19.23;;;10.40;;
74064;SDS011;62421;51.412;5.432;2022-11-12T07:23:02;18.37;;;10.07;;
74064;SDS011;62421;51.412;5.432;2022-11-12T07:25:28;18.70;;;9.47;;
74064;SDS011;62421;51.412;5.432;2022-11-12T07:27:53;17.27;;;8.83;;
74064;SDS011;62421;51.412;5.432;2022-11-12T07:30:19;19.25;;;9.57;;
74064;SDS011;62421;51.412;5.432;2022-11-12T07:32:44;18.13;;;9.93;;
74064;SDS011;62421;51.412;5.432;2022-11-12T07:35:09;18.07;;;9.00;;
74064;SDS011;62421;51.412;5.432;2022-11-12T07:37:35;18.67;;;9.87;;
74064;SDS011;62421;51.412;5.432;2022-11-12T07:40:01;16.98;;;9.48;;
74064;SDS011;62421;51.412;5.432;2022-11-12T07:42:28;17.90;;;10.07;;
74064;SDS011;62421;51.412;5.432;2022-11-12T07:44:56;16.75;;;9.15;;
74064;SDS011;62421;51.412;5.432;2022-11-12T07:47:21;18.43;;;9.40;;
74064;SDS011;62421;51.412;5.432;2022-11-12T07:49:46;16.27;;;10.13;;
74064;SDS011;62421;51.412;5.432;2022-11-12T07:52:12;19.00;;;10.23;;
74064;SDS011;62421;51.412;5.432;2022-11-12T07:54:37;23.63;;;9.90;;
74064;SDS011;62421;51.412;5.432;2022-11-12T07:57:02;23.83;;;10.70;;
74064;SDS011;62421;51.412;5.432;2022-11-12T07:59:27;21.17;;;10.30;;
74064;SDS011;62421;51.412;5.432;2022-11-12T08:01:53;20.30;;;10.07;;
74064;SDS011;62421;51.412;5.432;2022-11-12T08:04:18;22.88;;;10.45;;
74064;SDS011;62421;51.412;5.432;2022-11-12T08:06:43;21.30;;;12.32;;
74064;SDS011;62421;51.412;5.432;2022-11-12T08:09:09;17.77;;;10.73;;
74064;SDS011;62421;51.412;5.432;2022-11-12T08:11:34;21.93;;;11.17;;
74064;SDS011;62421;51.412;5.432;2022-11-12T08:14:00;21.27;;;11.07;;
74064;SDS011;62421;51.412;5.432;2022-11-12T08:16:26;24.23;;;10.93;;
74064;SDS011;62421;51.412;5.432;2022-11-12T08:18:51;23.20;;;12.67;;
74064;SDS011;62421;51.412;5.432;2022-11-12T08:21:17;23.33;;;11.90;;
74064;SDS011;62421;51.412;5.432;2022-11-12T08:23:42;26.38;;;12.80;;
74064;SDS011;62421;51.412;5.432;2022-11-12T08:26:10;24.97;;;12.07;;
74064;SDS011;62421;51.412;5.432;2022-11-12T08:28:37;23.23;;;13.77;;
74064;SDS011;62421;51.412;5.432;2022-11-12T08:31:04;23.10;;;11.95;;
74064;SDS011;62421;51.412;5.432;2022-11-12T08:33:32;23.07;;;12.00;;
74064;SDS011;62421;51.412;5.432;2022-11-12T08:36:01;27.58;;;12.45;;
74064;SDS011;62421;51.412;5.432;2022-11-12T08:38:27;24.15;;;12.70;;
74064;SDS011;62421;51.412;5.432;2022-11-12T08:40:52;24.13;;;13.00;;
74064;SDS011;62421;51.412;5.432;2022-11-12T08:43:18;25.00;;;12.63;;
74064;SDS011;62421;51.412;5.432;2022-11-12T08:45:43;23.13;;;12.80;;
74064;SDS011;62421;51.412;5.432;2022-11-12T08:48:09;22.47;;;12.17;;
74064;SDS011;62421;51.412;5.432;2022-11-12T08:50:38;23.75;;;13.70;;
74064;SDS011;62421;51.412;5.432;2022-11-12T08:53:04;24.90;;;13.65;;
74064;SDS011;62421;51.412;5.432;2022-11-12T08:55:32;23.73;;;13.03;;
74064;SDS011;62421;51.412;5.432;2022-11-12T08:57:58;23.17;;;13.18;;
74064;SDS011;62421;51.412;5.432;2022-11-12T09:00:29;24.38;;;13.88;;
74064;SDS011;62421;51.412;5.432;2022-11-12T09:02:59;26.83;;;15.40;;
74064;SDS011;62421;51.412;5.432;2022-11-12T09:05:26;25.57;;;13.57;;
74064;SDS011;62421;51.412;5.432;2022-11-12T09:07:56;26.70;;;14.52;;
74064;SDS011;62421;51.412;5.432;2022-11-12T09:10:25;28.77;;;14.23;;
74064;SDS011;62421;51.412;5.432;2022-11-12T09:12:51;25.33;;;13.57;;
74064;SDS011;62421;51.412;5.432;2022-11-12T09:15:17;33.27;;;15.00;;
74064;SDS011;62421;51.412;5.432;2022-11-12T09:17:44;26.95;;;15.43;;
74064;SDS011;62421;51.412;5.432;2022-11-12T09:20:09;28.50;;;16.60;;
74064;SDS011;62421;51.412;5.432;2022-11-12T09:22:35;28.65;;;16.02;;
74064;SDS011;62421;51.412;5.432;2022-11-12T09:25:00;36.47;;;16.60;;
74064;SDS011;62421;51.412;5.432;2022-11-12T09:27:26;28.07;;;17.37;;
74064;SDS011;62421;51.412;5.432;2022-11-12T09:29:52;28.10;;;16.40;;
74064;SDS011;62421;51.412;5.432;2022-11-12T09:32:17;27.57;;;15.77;;
74064;SDS011;62421;51.412;5.432;2022-11-12T09:34:43;30.97;;;17.33;;
74064;SDS011;62421;51.412;5.432;2022-11-12T09:37:08;27.30;;;16.07;;
74064;SDS011;62421;51.412;5.432;2022-11-12T09:39:33;28.80;;;17.37;;
74064;SDS011;62421;51.412;5.432;2022-11-12T09:41:58;27.07;;;16.90;;
74064;SDS011;62421;51.412;5.432;2022-11-12T09:44:24;30.27;;;17.27;;
74064;SDS011;62421;51.412;5.432;2022-11-12T09:46:51;30.50;;;16.87;;
74064;SDS011;62421;51.412;5.432;2022-11-12T09:51:53;34.28;;;17.42;;
74064;SDS011;62421;51.412;5.432;2022-11-12T09:54:25;29.88;;;17.58;;
74064;SDS011;62421;51.412;5.432;2022-11-12T09:56:57;26.50;;;16.83;;
74064;SDS011;62421;51.412;5.432;2022-11-12T09:59:25;28.48;;;15.57;;
74064;SDS011;62421;51.412;5.432;2022-11-12T10:01:57;28.40;;;16.10;;
74064;SDS011;62421;51.412;5.432;2022-11-12T10:09:58;24.83;;;15.50;;
74064;SDS011;62421;51.412;5.432;2022-11-12T10:18:53;22.60;;;14.30;;
74064;SDS011;62421;51.412;5.432;2022-11-12T10:21:35;33.90;;;15.60;;
74064;SDS011;62421;51.412;5.432;2022-11-12T10:24:07;23.87;;;15.10;;
74064;SDS011;62421;51.412;5.432;2022-11-12T10:26:34;21.13;;;12.07;;
74064;SDS011;62421;51.412;5.432;2022-11-12T10:29:11;22.85;;;13.15;;
74064;SDS011;62421;51.412;5.432;2022-11-12T10:31:45;25.15;;;13.88;;
74064;SDS011;62421;51.412;5.432;2022-11-12T10:36:42;24.65;;;13.90;;
74064;SDS011;62421;51.412;5.432;2022-11-12T10:42:06;23.05;;;13.75;;
74064;SDS011;62421;51.412;5.432;2022-11-12T10:44:34;25.50;;;14.23;;
74064;SDS011;62421;51.412;5.432;2022-11-12T10:47:17;23.17;;;12.75;;
74064;SDS011;62421;51.412;5.432;2022-11-12T10:49:43;21.88;;;10.48;;
74064;SDS011;62421;51.412;5.432;2022-11-12T10:52:23;17.37;;;10.50;;
74064;SDS011;62421;51.412;5.432;2022-11-12T10:54:48;17.40;;;10.50;;
74064;SDS011;62421;51.412;5.432;2022-11-12T10:57:29;17.20;;;10.15;;
74064;SDS011;62421;51.412;5.432;2022-11-12T11:00:04;15.97;;;9.03;;
74064;SDS011;62421;51.412;5.432;2022-11-12T11:02:36;15.63;;;9.30;;
74064;SDS011;62421;51.412;5.432;2022-11-12T11:07:53;14.37;;;7.93;;
74064;SDS011;62421;51.412;5.432;2022-11-12T11:10:23;16.85;;;7.85;;
74064;SDS011;62421;51.412;5.432;2022-11-12T11:16:01;14.95;;;8.35;;
74064;SDS011;62421;51.412;5.432;2022-11-12T11:18:29;12.43;;;8.07;;
74064;SDS011;62421;51.412;5.432;2022-11-12T11:21:08;14.10;;;7.53;;
74064;SDS011;62421;51.412;5.432;2022-11-12T11:32:10;16.83;;;7.95;;
74064;SDS011;62421;51.412;5.432;2022-11-12T11:37:58;14.57;;;7.30;;
74064;SDS011;62421;51.412;5.432;2022-11-12T11:40:41;15.97;;;7.47;;
74064;SDS011;62421;51.412;5.432;2022-11-12T11:53:54;17.77;;;8.13;;
74064;SDS011;62421;51.412;5.432;2022-11-12T11:56:35;17.48;;;8.35;;
74064;SDS011;62421;51.412;5.432;2022-11-12T12:01:42;13.77;;;7.93;;
74064;SDS011;62421;51.412;5.432;2022-11-12T12:09:48;15.15;;;7.80;;
74064;SDS011;62421;51.412;5.432;2022-11-12T12:12:30;13.07;;;7.85;;
74064;SDS011;62421;51.412;5.432;2022-11-12T12:23:16;19.17;;;8.18;;
74064;SDS011;62421;51.412;5.432;2022-11-12T12:26:10;17.27;;;7.65;;
74064;SDS011;62421;51.412;5.432;2022-11-12T12:28:44;15.13;;;6.82;;
74064;SDS011;62421;51.412;5.432;2022-11-12T12:31:17;15.13;;;7.72;;
74064;SDS011;62421;51.412;5.432;2022-11-12T12:33:55;13.43;;;6.80;;
74064;SDS011;62421;51.412;5.432;2022-11-12T12:36:35;18.02;;;7.03;;
74064;SDS011;62421;51.412;5.432;2022-11-12T12:39:09;13.27;;;6.75;;
74064;SDS011;62421;51.412;5.432;2022-11-12T12:42:03;12.05;;;7.18;;
74064;SDS011;62421;51.412;5.432;2022-11-12T12:44:51;16.63;;;7.20;;
74064;SDS011;62421;51.412;5.432;2022-11-12T12:47:25;13.87;;;7.33;;
74064;SDS011;62421;51.412;5.432;2022-11-12T12:49:53;16.23;;;7.00;;
74064;SDS011;62421;51.412;5.432;2022-11-12T12:52:19;13.45;;;7.50;;
74064;SDS011;62421;51.412;5.432;2022-11-12T13:02:49;12.75;;;6.68;;
74064;SDS011;62421;51.412;5.432;2022-11-12T13:05:34;19.63;;;7.85;;
74064;SDS011;62421;51.412;5.432;2022-11-12T13:08:04;17.67;;;7.50;;
74064;SDS011;62421;51.412;5.432;2022-11-12T13:15:43;13.73;;;7.05;;
74064;SDS011;62421;51.412;5.432;2022-11-12T13:18:10;13.15;;;6.63;;
74064;SDS011;62421;51.412;5.432;2022-11-12T13:20:38;12.40;;;6.53;;
74064;SDS011;62421;51.412;5.432;2022-11-12T13:23:08;11.38;;;6.55;;
74064;SDS011;62421;51.412;5.432;2022-11-12T13:25:36;11.77;;;5.60;;
74064;SDS011;62421;51.412;5.432;2022-11-12T13:28:03;12.43;;;6.45;;
74064;SDS011;62421;51.412;5.432;2022-11-12T13:32:55;15.50;;;6.73;;
74064;SDS011;62421;51.412;5.432;2022-11-12T13:38:01;17.73;;;8.27;;
74064;SDS011;62421;51.412;5.432;2022-11-12T13:40:45;17.05;;;8.68;;
74064;SDS011;62421;51.412;5.432;2022-11-12T13:51:40;20.67;;;11.52;;
74064;SDS011;62421;51.412;5.432;2022-11-12T13:54:23;18.60;;;11.43;;
74064;SDS011;62421;51.412;5.432;2022-11-12T13:56:54;17.45;;;10.57;;
74064;SDS011;62421;51.412;5.432;2022-11-12T13:59:20;20.27;;;10.60;;
74064;SDS011;62421;51.412;5.432;2022-11-12T14:01:48;19.73;;;10.00;;
74064;SDS011;62421;51.412;5.432;2022-11-12T14:04:15;19.58;;;10.65;;
74064;SDS011;62421;51.412;5.432;2022-11-12T14:06:44;19.48;;;10.77;;
74064;SDS011;62421;51.412;5.432;2022-11-12T14:14:37;21.03;;;11.20;;
74064;SDS011;62421;51.412;5.432;2022-11-12T14:22:25;20.45;;;11.57;;
74064;SDS011;62421;51.412;5.432;2022-11-12T14:24:59;21.33;;;12.10;;
74064;SDS011;62421;51.412;5.432;2022-11-12T14:32:39;20.55;;;11.98;;
74064;SDS011;62421;51.412;5.432;2022-11-12T14:35:15;23.42;;;12.20;;
74064;SDS011;62421;51.412;5.432;2022-11-12T14:37:43;22.27;;;12.68;;
74064;SDS011;62421;51.412;5.432;2022-11-12T14:40:15;25.97;;;13.30;;
74064;SDS011;62421;51.412;5.432;2022-11-12T14:42:42;21.40;;;13.82;;
74064;SDS011;62421;51.412;5.432;2022-11-12T14:45:18;28.90;;;14.82;;
74064;SDS011;62421;51.412;5.432;2022-11-12T14:47:45;26.00;;;15.37;;
74064;SDS011;62421;51.412;5.432;2022-11-12T14:50:14;26.27;;;14.98;;
74064;SDS011;62421;51.412;5.432;2022-11-12T14:52:42;35.70;;;16.00;;
74064;SDS011;62421;51.412;5.432;2022-11-12T14:55:14;26.25;;;14.93;;
74064;SDS011;62421;51.412;5.432;2022-11-12T14:57:44;26.27;;;13.82;;
74064;SDS011;62421;51.412;5.432;2022-11-12T15:00:44;25.23;;;13.97;;
74064;SDS011;62421;51.412;5.432;2022-11-12T15:03:07;26.42;;;14.27;;
74064;SDS011;62421;51.412;5.432;2022-11-12T15:05:51;22.77;;;14.45;;
74064;SDS011;62421;51.412;5.432;2022-11-12T15:08:28;26.20;;;15.73;;
74064;SDS011;62421;51.412;5.432;2022-11-12T15:10:56;25.30;;;14.80;;
74064;SDS011;62421;51.412;5.432;2022-11-12T15:13:39;25.20;;;14.07;;
74064;SDS011;62421;51.412;5.432;2022-11-12T15:16:06;24.98;;;14.25;;
74064;SDS011;62421;51.412;5.432;2022-11-12T15:18:34;25.23;;;14.68;;
74064;SDS011;62421;51.412;5.432;2022-11-12T15:23:51;24.45;;;13.70;;
74064;SDS011;62421;51.412;5.432;2022-11-12T15:26:23;25.98;;;15.35;;
74064;SDS011;62421;51.412;5.432;2022-11-12T15:31:50;29.95;;;15.85;;
74064;SDS011;62421;51.412;5.432;2022-11-12T15:36:43;26.83;;;14.73;;
74064;SDS011;62421;51.412;5.432;2022-11-12T15:39:12;21.87;;;14.37;;
74064;SDS011;62421;51.412;5.432;2022-11-12T15:41:38;30.48;;;15.18;;
74064;SDS011;62421;51.412;5.432;2022-11-12T15:44:04;28.67;;;15.98;;
74064;SDS011;62421;51.412;5.432;2022-11-12T15:46:30;26.97;;;14.27;;
74064;SDS011;62421;51.412;5.432;2022-11-12T15:48:55;26.38;;;14.30;;
74064;SDS011;62421;51.412;5.432;2022-11-12T15:51:20;22.47;;;14.77;;
74064;SDS011;62421;51.412;5.432;2022-11-12T15:53:46;23.93;;;14.60;;
74064;SDS011;62421;51.412;5.432;2022-11-12T15:56:11;23.17;;;13.50;;
74064;SDS011;62421;51.412;5.432;2022-11-12T15:58:41;27.73;;;15.95;;
74064;SDS011;62421;51.412;5.432;2022-11-12T16:01:06;23.40;;;14.53;;
74064;SDS011;62421;51.412;5.432;2022-11-12T16:03:35;30.55;;;16.33;;
74064;SDS011;62421;51.412;5.432;2022-11-12T16:06:00;27.40;;;15.07;;
74064;SDS011;62421;51.412;5.432;2022-11-12T16:08:26;26.23;;;14.07;;
74064;SDS011;62421;51.412;5.432;2022-11-12T16:10:51;32.87;;;15.63;;
74064;SDS011;62421;51.412;5.432;2022-11-12T16:13:24;28.47;;;15.50;;
74064;SDS011;62421;51.412;5.432;2022-11-12T16:15:51;33.85;;;14.93;;
74064;SDS011;62421;51.412;5.432;2022-11-12T16:18:16;30.05;;;15.77;;
74064;SDS011;62421;51.412;5.432;2022-11-12T16:20:42;24.63;;;13.98;;
74064;SDS011;62421;51.412;5.432;2022-11-12T16:23:07;27.88;;;14.35;;
74064;SDS011;62421;51.412;5.432;2022-11-12T16:25:33;29.17;;;14.13;;
74064;SDS011;62421;51.412;5.432;2022-11-12T16:28:01;27.27;;;14.68;;
74064;SDS011;62421;51.412;5.432;2022-11-12T16:30:27;26.33;;;14.03;;